Decoded Metar for EPRZ (RZESZOW in POLAND) (IATA:RZE) | Meteo·Mobile Aviation Weather
aviador You're here:

EPRZ Decoded Metar

RZESZOW in POLAND
Report Time2018-08-22 04:00:00
UTC Time2018-08-22 04:29:45
Flight Rules vfr VFR
Wind360° at 03 kt
W.Decomp.*RWY 27: 0.3 kt HW 3.0 kt RCW
Visibility9999 m
Phenomena:N/A
Clouds:N/A
Expected CloudBase > 400 ft AGL from Temp-Dew spread
CeilingNone
Temp12°C (ISA -2)
Dew Point11°C (94% RH)
AAT11.3°C
QNH1022 hPa
Density Alt338 ft
Elevation663 ft
Report Wrong Elevation
Raw Report
EPRZ 220400Z 36003KT CAVOK 12/11 Q1022=

Extra information for EPRZ:More info

Metar Taf Metar & Taf Last 4 Metars F.Rules Stats Wind Profile Meteogram Temp Stats Airport Information Weather charts Add Link Nearby VenuesMetar ALERT Operation Metar Decoded Social comments